Time;durP1;ratioP1;P1;durP2;ratioP2;P2;SDS_P1;SDS_P2;PMS_P1;PMS_P2;Temp;Humidity;BMP_temperature;BMP_pressure;BME280_temperature;BME280_humidity;BME280_pressure;Samples;Min_cycle;Max_cycle;Signal;HPM_P1;HPM_P2
2022/01/18 00:00:10;;;;;;;29.35;4.38;;;;;;;;;;4922215;29;20030;-75
2022/01/18 00:02:38;;;;;;;25.25;3.85;;;;;;;;;;4934913;29;20544;-74
2022/01/18 00:05:04;;;;;;;27.15;3.78;;;;;;;;;;4934992;29;20024;-74
2022/01/18 00:07:29;;;;;;;27.98;3.60;;;;;;;;;;4917403;29;20123;-74
2022/01/18 00:09:55;;;;;;;35.22;3.67;;;;;;;;;;4934264;29;20484;-74
2022/01/18 00:15:16;;;;;;;31.40;3.85;;;;;;;;;;4934844;29;20565;-74
2022/01/18 00:17:42;;;;;;;23.75;3.25;;;;;;;;;;4934614;29;20022;-74
2022/01/18 00:20:16;;;;;;;18.02;2.97;;;;;;;;;;4934462;29;20020;-74
2022/01/18 00:22:41;;;;;;;36.38;3.78;;;;;;;;;;4901997;29;20055;-74
2022/01/18 00:25:09;;;;;;;32.08;4.07;;;;;;;;;;4934675;29;20051;-75
2022/01/18 00:27:34;;;;;;;32.78;3.50;;;;;;;;;;4935239;29;20020;-75
2022/01/18 00:30:32;;;;;;;33.50;3.83;;;;;;;;;;4934439;29;20082;-75
2022/01/18 00:33:15;;;;;;;33.80;4.03;;;;;;;;;;4919344;29;20147;-75
2022/01/18 00:35:35;;;;;;;25.23;3.95;;;;;;;;;;4934186;29;20023;-74
2022/01/18 00:38:00;;;;;;;38.15;4.00;;;;;;;;;;4917303;29;20036;-75
2022/01/18 00:40:26;;;;;;;22.08;3.83;;;;;;;;;;4917130;29;20024;-75
2022/01/18 00:42:51;;;;;;;31.92;5.40;;;;;;;;;;4934655;29;20060;-75
2022/01/18 00:45:16;;;;;;;35.38;5.18;;;;;;;;;;4934434;29;20048;-74
2022/01/18 00:47:41;;;;;;;27.63;4.28;;;;;;;;;;4934469;29;20028;-74
2022/01/18 00:50:08;;;;;;;22.75;3.38;;;;;;;;;;4935058;29;20035;-74
2022/01/18 00:52:38;;;;;;;17.27;3.83;;;;;;;;;;4934161;29;20076;-74
2022/01/18 00:55:03;;;;;;;24.90;4.28;;;;;;;;;;4934123;29;20536;-74
2022/01/18 00:57:29;;;;;;;28.30;4.25;;;;;;;;;;4916943;29;20024;-75
2022/01/18 00:59:54;;;;;;;35.97;4.50;;;;;;;;;;4933885;29;20070;-75
2022/01/18 01:02:20;;;;;;;30.10;3.78;;;;;;;;;;4934467;29;20028;-75
2022/01/18 01:04:49;;;;;;;23.15;3.90;;;;;;;;;;4934893;29;20475;-74
2022/01/18 01:07:19;;;;;;;31.25;3.58;;;;;;;;;;4931998;29;20023;-74
2022/01/18 01:09:44;;;;;;;39.53;6.38;;;;;;;;;;4920348;29;20481;-75
2022/01/18 01:12:11;;;;;;;25.33;3.97;;;;;;;;;;4937665;29;20047;-74
2022/01/18 01:14:37;;;;;;;25.50;3.60;;;;;;;;;;4937426;29;20042;-74
2022/01/18 01:45:43;;;;;;;28.65;3.38;;;;;;;;;;4937278;29;20024;-75
2022/01/18 01:48:09;;;;;;;21.40;3.33;;;;;;;;;;4936877;29;20026;-74
2022/01/18 01:50:50;;;;;;;22.75;2.97;;;;;;;;;;4937296;29;20023;-75
2022/01/18 01:53:17;;;;;;;26.40;4.32;;;;;;;;;;4938423;29;20031;-74
2022/01/18 01:55:42;;;;;;;28.38;4.00;;;;;;;;;;4936899;29;20037;-74
2022/01/18 01:58:08;;;;;;;28.13;3.72;;;;;;;;;;4919550;29;20589;-74
2022/01/18 02:00:34;;;;;;;23.50;2.75;;;;;;;;;;4936522;29;20023;-74
2022/01/18 02:02:59;;;;;;;32.83;3.30;;;;;;;;;;4936602;29;20196;-74
2022/01/18 02:05:24;;;;;;;23.85;3.45;;;;;;;;;;4936745;29;20492;-74
2022/01/18 02:07:50;;;;;;;27.10;4.53;;;;;;;;;;4936751;29;20099;-74
2022/01/18 02:10:16;;;;;;;27.17;3.40;;;;;;;;;;4936504;29;20023;-74
2022/01/18 02:12:41;;;;;;;18.17;2.80;;;;;;;;;;4920546;29;20023;-75
2022/01/18 02:15:14;;;;;;;34.47;4.15;;;;;;;;;;4936340;29;20315;-75
2022/01/18 02:23:18;;;;;;;20.25;3.20;;;;;;;;;;4937951;29;20035;-74
2022/01/18 02:25:44;;;;;;;20.65;3.50;;;;;;;;;;4937986;29;20031;-74
2022/01/18 02:28:10;;;;;;;23.33;3.22;;;;;;;;;;4938387;29;20047;-75
2022/01/18 02:30:35;;;;;;;22.17;3.83;;;;;;;;;;4921636;29;20020;-74
2022/01/18 02:33:00;;;;;;;28.85;3.03;;;;;;;;;;4939768;29;20100;-75
2022/01/18 02:35:26;;;;;;;43.47;3.72;;;;;;;;;;4940276;29;20019;-75
2022/01/18 02:37:51;;;;;;;28.77;3.78;;;;;;;;;;4924116;29;20024;-75
2022/01/18 02:40:17;;;;;;;25.95;3.83;;;;;;;;;;4938342;29;20111;-75
2022/01/18 02:42:54;;;;;;;22.27;3.25;;;;;;;;;;4941503;29;20062;-75
2022/01/18 02:45:19;;;;;;;26.13;3.30;;;;;;;;;;4940483;29;20054;-74
2022/01/18 02:47:46;;;;;;;19.17;2.65;;;;;;;;;;4940140;29;20469;-74
2022/01/18 02:50:11;;;;;;;32.67;3.63;;;;;;;;;;4940625;29;20038;-74
2022/01/18 02:52:39;;;;;;;21.83;4.18;;;;;;;;;;4941021;29;20023;-74
2022/01/18 02:55:04;;;;;;;25.17;3.17;;;;;;;;;;4941389;29;20079;-74
2022/01/18 02:57:31;;;;;;;30.88;3.83;;;;;;;;;;4940495;29;20051;-75
2022/01/18 03:00:44;;;;;;;25.38;2.80;;;;;;;;;;4943634;29;20028;-74
2022/01/18 03:05:26;;;;;;;20.55;3.00;;;;;;;;;;4943319;29;20453;-74
2022/01/18 03:07:51;;;;;;;21.50;2.80;;;;;;;;;;4924824;29;20031;-75
2022/01/18 03:10:16;;;;;;;18.70;2.30;;;;;;;;;;4938797;29;20369;-75
2022/01/18 03:12:42;;;;;;;28.67;3.38;;;;;;;;;;4938287;29;20443;-74
2022/01/18 03:15:07;;;;;;;17.13;3.05;;;;;;;;;;4941402;29;20579;-74
2022/01/18 03:17:33;;;;;;;17.50;2.85;;;;;;;;;;4940005;29;20012;-75
2022/01/18 03:19:58;;;;;;;15.38;2.67;;;;;;;;;;4939448;29;20016;-75
2022/01/18 03:22:24;;;;;;;23.15;2.92;;;;;;;;;;4938709;29;20499;-74
2022/01/18 03:25:03;;;;;;;18.42;3.10;;;;;;;;;;4938178;29;20131;-75
2022/01/18 03:30:12;;;;;;;12.23;1.83;;;;;;;;;;4936699;29;20034;-74
2022/01/18 03:32:38;;;;;;;16.50;3.05;;;;;;;;;;4937957;29;20015;-75
2022/01/18 03:35:05;;;;;;;19.02;3.20;;;;;;;;;;4939642;29;20031;-75
2022/01/18 03:37:30;;;;;;;15.40;3.10;;;;;;;;;;4939199;29;20023;-75
2022/01/18 03:39:55;;;;;;;21.08;2.97;;;;;;;;;;4937919;29;20100;-75
2022/01/18 03:45:05;;;;;;;18.85;2.63;;;;;;;;;;4939264;29;20034;-75
2022/01/18 03:47:31;;;;;;;21.10;2.38;;;;;;;;;;4931658;29;20054;-74
2022/01/18 03:49:57;;;;;;;16.65;2.67;;;;;;;;;;4937960;29;20023;-75
2022/01/18 03:52:22;;;;;;;13.43;2.17;;;;;;;;;;4938512;29;20035;-75
2022/01/18 03:54:47;;;;;;;12.55;2.30;;;;;;;;;;4935663;29;20529;-75
2022/01/18 03:57:16;;;;;;;23.40;3.47;;;;;;;;;;4934755;29;20481;-74
2022/01/18 03:59:41;;;;;;;;;;;;;;;;;;4935701;29;20078;-74
2022/01/18 04:02:07;;;;;;;14.52;2.10;;;;;;;;;;4934815;29;19907;-74
2022/01/18 04:04:35;;;;;;;17.00;3.22;;;;;;;;;;4934577;29;20107;-75
2022/01/18 04:07:00;;;;;;;17.30;1.98;;;;;;;;;;4917921;29;20020;-74
2022/01/18 04:09:26;;;;;;;17.67;2.53;;;;;;;;;;4935448;29;20036;-74
2022/01/18 04:11:51;;;;;;;16.23;2.25;;;;;;;;;;4938145;29;20039;-74
2022/01/18 04:14:24;;;;;;;17.65;2.67;;;;;;;;;;4935987;29;20060;-74
2022/01/18 04:17:02;;;;;;;20.00;2.70;;;;;;;;;;4936205;29;20353;-74
2022/01/18 04:27:28;;;;;;;14.45;2.72;;;;;;;;;;4935820;29;20440;-74
2022/01/18 04:29:53;;;;;;;13.07;2.33;;;;;;;;;;4937773;29;20023;-74
2022/01/18 04:32:21;;;;;;;20.20;2.17;;;;;;;;;;4939844;29;20020;-74
2022/01/18 04:34:47;;;;;;;23.02;2.90;;;;;;;;;;4922358;29;20473;-75
2022/01/18 04:37:12;;;;;;;15.18;2.25;;;;;;;;;;4937580;29;20016;-75
2022/01/18 04:39:40;;;;;;;19.88;3.30;;;;;;;;;;4937766;29;20038;-75
2022/01/18 04:42:13;;;;;;;21.08;3.50;;;;;;;;;;4941836;29;20039;-75
2022/01/18 04:50:06;;;;;;;14.55;3.42;;;;;;;;;;4938627;29;20051;-75
2022/01/18 04:52:32;;;;;;;24.95;3.03;;;;;;;;;;4922183;29;20019;-75
2022/01/18 04:55:00;;;;;;;25.90;4.47;;;;;;;;;;4939178;29;20063;-75
2022/01/18 05:00:09;;;;;;;17.05;2.63;;;;;;;;;;4939187;29;20094;-75
2022/01/18 05:02:35;;;;;;;18.73;2.65;;;;;;;;;;4938391;29;20488;-75
2022/01/18 05:05:00;;;;;;;22.48;3.75;;;;;;;;;;4938908;29;20019;-75
2022/01/18 05:07:25;;;;;;;19.00;2.75;;;;;;;;;;4939296;29;20027;-75
2022/01/18 05:09:52;;;;;;;21.80;2.95;;;;;;;;;;4940677;29;20027;-75
2022/01/18 05:12:28;;;;;;;13.05;2.22;;;;;;;;;;4940896;29;20019;-75
2022/01/18 05:14:54;;;;;;;14.55;2.45;;;;;;;;;;4940986;29;20020;-75
2022/01/18 05:19:59;;;;;;;29.10;3.35;;;;;;;;;;4940639;29;20031;-74
2022/01/18 05:25:08;;;;;;;25.58;3.20;;;;;;;;;;4924525;29;20091;-75
2022/01/18 05:27:33;;;;;;;19.50;3.08;;;;;;;;;;4938267;29;20016;-75
2022/01/18 05:29:58;;;;;;;15.85;2.60;;;;;;;;;;4938312;29;20103;-75
2022/01/18 05:32:24;;;;;;;14.90;2.72;;;;;;;;;;4937752;29;20469;-75
2022/01/18 05:34:49;;;;;;;20.38;3.20;;;;;;;;;;4936206;29;20024;-74
2022/01/18 05:37:15;;;;;;;21.25;4.13;;;;;;;;;;4937467;29;20011;-75
2022/01/18 05:39:40;;;;;;;21.10;3.42;;;;;;;;;;4920144;29;20507;-74
2022/01/18 05:42:05;;;;;;;14.13;2.63;;;;;;;;;;4937637;29;20092;-74
2022/01/18 05:44:31;;;;;;;27.60;3.45;;;;;;;;;;4938117;29;20032;-75
2022/01/18 05:46:56;;;;;;;16.77;2.50;;;;;;;;;;4937856;29;20034;-75
2022/01/18 05:49:21;;;;;;;19.55;2.90;;;;;;;;;;4937192;29;20015;-75
2022/01/18 05:51:47;;;;;;;12.57;2.55;;;;;;;;;;4936734;29;20031;-75
2022/01/18 05:54:15;;;;;;;28.67;4.13;;;;;;;;;;4937340;29;20026;-75
2022/01/18 05:56:40;;;;;;;17.20;3.53;;;;;;;;;;4972051;23;20142;-93
2022/01/18 05:59:06;;;;;;;30.48;3.88;;;;;;;;;;4946329;29;20671;-94
2022/01/18 06:01:34;;;;;;;17.48;3.60;;;;;;;;;;4946250;29;20114;-92
2022/01/18 06:09:10;;;;;;;10.98;2.47;;;;;;;;;;4956123;29;20084;-94
2022/01/18 06:11:41;;;;;;;18.55;2.97;;;;;;;;;;4940009;29;20016;-91
2022/01/18 06:14:06;;;;;;;20.00;3.88;;;;;;;;;;4938529;29;20019;-93
2022/01/18 06:16:32;;;;;;;24.95;3.83;;;;;;;;;;4955042;29;20042;-94
2022/01/18 06:18:58;;;;;;;11.93;2.58;;;;;;;;;;4938681;29;20019;-93
2022/01/18 06:21:23;;;;;;;25.25;3.38;;;;;;;;;;4930513;29;20023;-95
2022/01/18 06:23:49;;;;;;;20.35;2.58;;;;;;;;;;4928254;29;20028;-95
2022/01/18 06:26:16;;;;;;;23.20;2.92;;;;;;;;;;4929631;29;20047;-94
2022/01/18 06:28:44;;;;;;;18.65;3.58;;;;;;;;;;4933094;29;20054;-94
2022/01/18 06:31:10;;;;;;;9.40;2.65;;;;;;;;;;4931543;29;20259;-90
2022/01/18 06:33:35;;;;;;;19.52;3.67;;;;;;;;;;4924116;29;20123;-92
2022/01/18 06:36:01;;;;;;;21.15;3.05;;;;;;;;;;4922550;29;20016;-92
2022/01/18 06:38:26;;;;;;;22.83;4.38;;;;;;;;;;4923637;29;20393;-91
2022/01/18 06:41:03;;;;;;;17.77;2.97;;;;;;;;;;4932627;29;20027;-92
2022/01/18 06:46:04;;;;;;;19.13;2.70;;;;;;;;;;5574059;23;21086;-84
2022/01/18 06:48:30;;;;;;;25.88;2.72;;;;;;;;;;5640574;23;20080;-89
2022/01/18 06:50:55;;;;;;;18.52;4.38;;;;;;;;;;4916802;29;20081;-88
2022/01/18 06:53:24;;;;;;;25.63;3.25;;;;;;;;;;4918549;29;20024;-89
2022/01/18 06:55:53;;;;;;;23.35;3.22;;;;;;;;;;4917273;29;20039;-89
2022/01/18 06:58:19;;;;;;;18.77;3.08;;;;;;;;;;4911786;29;20024;-92
2022/01/18 07:00:44;;;;;;;21.75;3.47;;;;;;;;;;4907902;29;20040;-92
2022/01/18 07:03:10;;;;;;;18.73;3.25;;;;;;;;;;4914138;29;20024;-89
2022/01/18 07:05:37;;;;;;;15.70;2.97;;;;;;;;;;4902666;29;20107;-85
2022/01/18 07:08:02;;;;;;;19.38;2.72;;;;;;;;;;4903244;29;20084;-88
2022/01/18 07:10:31;;;;;;;25.83;2.92;;;;;;;;;;4904741;29;20406;-90
2022/01/18 07:12:57;;;;;;;21.42;2.72;;;;;;;;;;4903721;29;20025;-92
2022/01/18 07:15:22;;;;;;;18.33;3.40;;;;;;;;;;4922846;29;20092;-91
2022/01/18 07:17:47;;;;;;;16.15;2.70;;;;;;;;;;4917190;29;20025;-91
2022/01/18 07:20:13;;;;;;;17.23;2.25;;;;;;;;;;4910469;29;20020;-90
2022/01/18 07:22:42;;;;;;;21.65;3.25;;;;;;;;;;4904529;29;20482;-91
2022/01/18 07:25:11;;;;;;;15.77;2.97;;;;;;;;;;4901238;29;20016;-88
2022/01/18 07:27:36;;;;;;;14.68;3.15;;;;;;;;;;4901358;29;20032;-89
2022/01/18 07:30:01;;;;;;;19.48;2.97;;;;;;;;;;4899428;29;20482;-89
2022/01/18 07:32:27;;;;;;;19.88;3.30;;;;;;;;;;4913420;29;20016;-89
2022/01/18 07:34:54;;;;;;;16.92;2.88;;;;;;;;;;4898566;29;20023;-90
2022/01/18 07:37:20;;;;;;;13.88;3.00;;;;;;;;;;4910830;29;20016;-90
2022/01/18 07:39:45;;;;;;;18.25;2.97;;;;;;;;;;4897336;29;20179;-90
2022/01/18 07:42:11;;;;;;;20.40;2.92;;;;;;;;;;4900666;29;20473;-90
2022/01/18 07:44:36;;;;;;;15.35;2.70;;;;;;;;;;4898600;29;20024;-90
2022/01/18 07:47:02;;;;;;;20.27;3.20;;;;;;;;;;4914701;29;20024;-88
2022/01/18 07:49:27;;;;;;;16.83;3.22;;;;;;;;;;4905584;29;20016;-93
2022/01/18 07:51:53;;;;;;;15.60;3.38;;;;;;;;;;4903398;29;20059;-93
2022/01/18 07:54:18;;;;;;;14.75;2.50;;;;;;;;;;4904519;29;20020;-92
2022/01/18 07:56:46;;;;;;;16.48;2.47;;;;;;;;;;4917060;29;20059;-94
2022/01/18 07:59:11;;;;;;;12.00;2.45;;;;;;;;;;4918556;29;20044;-94
2022/01/18 08:01:37;;;;;;;9.35;3.13;;;;;;;;;;4912734;29;20028;-92
2022/01/18 08:04:02;;;;;;;16.95;2.72;;;;;;;;;;4923360;29;20474;-94
2022/01/18 08:06:27;;;;;;;13.20;2.85;;;;;;;;;;4908448;29;20096;-93
2022/01/18 08:08:53;;;;;;;14.35;2.90;;;;;;;;;;4920253;29;20072;-91
2022/01/18 08:11:18;;;;;;;19.05;3.20;;;;;;;;;;4919159;29;20035;-92
2022/01/18 08:13:47;;;;;;;20.88;3.55;;;;;;;;;;4919637;29;20035;-93
2022/01/18 08:17:00;;;;;;;12.57;2.80;;;;;;;;;;4904470;29;20028;-92
2022/01/18 08:19:03;;;;;;;15.75;3.28;;;;;;;;;;4891682;29;20059;-89
2022/01/18 08:21:29;;;;;;;18.95;3.15;;;;;;;;;;4890993;29;20065;-90
2022/01/18 08:23:54;;;;;;;16.80;3.72;;;;;;;;;;4900640;29;20088;-79
2022/01/18 08:26:19;;;;;;;17.23;3.47;;;;;;;;;;4899762;29;20106;-80
2022/01/18 08:28:46;;;;;;;14.35;3.97;;;;;;;;;;4902372;29;20028;-81
2022/01/18 08:31:11;;;;;;;19.08;4.25;;;;;;;;;;4919581;29;20017;-83
2022/01/18 08:33:36;;;;;;;15.50;3.83;;;;;;;;;;4902357;29;20044;-81
2022/01/18 08:36:03;;;;;;;15.32;4.03;;;;;;;;;;4900648;29;20362;-81
2022/01/18 08:38:29;;;;;;;18.40;5.10;;;;;;;;;;4898749;29;20100;-83
2022/01/18 08:40:54;;;;;;;19.63;4.07;;;;;;;;;;4898908;29;20504;-81
2022/01/18 08:43:20;;;;;;;23.48;4.38;;;;;;;;;;4898696;29;20403;-85
2022/01/18 08:45:46;;;;;;;17.25;4.15;;;;;;;;;;4901669;29;20029;-89
2022/01/18 08:48:12;;;;;;;23.63;4.30;;;;;;;;;;4920832;29;20021;-81
2022/01/18 08:50:38;;;;;;;15.43;3.83;;;;;;;;;;4921477;29;20028;-89
2022/01/18 08:53:03;;;;;;;18.50;4.40;;;;;;;;;;4915987;29;20028;-82
2022/01/18 08:55:29;;;;;;;21.50;3.88;;;;;;;;;;4915711;29;20119;-84
2022/01/18 08:57:54;;;;;;;19.77;4.43;;;;;;;;;;4907297;29;20132;-86
2022/01/18 09:00:20;;;;;;;15.23;4.82;;;;;;;;;;4913988;29;20029;-86
2022/01/18 09:02:45;;;;;;;14.05;4.10;;;;;;;;;;4903921;29;20398;-89
2022/01/18 09:05:10;;;;;;;13.52;3.38;;;;;;;;;;4901654;29;20100;-86
2022/01/18 09:07:37;;;;;;;19.90;4.65;;;;;;;;;;4899912;29;20087;-89
2022/01/18 09:10:07;;;;;;;12.65;3.92;;;;;;;;;;4901426;29;20024;-89
2022/01/18 09:12:32;;;;;;;12.98;3.53;;;;;;;;;;4899619;29;20025;-93
2022/01/18 09:15:00;;;;;;;13.57;3.70;;;;;;;;;;4911775;29;20023;-88
2022/01/18 09:17:28;;;;;;;13.02;3.67;;;;;;;;;;4897187;29;20095;-88
2022/01/18 09:19:53;;;;;;;11.23;3.20;;;;;;;;;;4896313;29;20134;-90
2022/01/18 09:22:18;;;;;;;13.98;3.42;;;;;;;;;;4894964;29;20558;-93
2022/01/18 09:24:47;;;;;;;18.20;3.45;;;;;;;;;;4899071;29;20021;-91
2022/01/18 09:27:12;;;;;;;9.52;2.47;;;;;;;;;;4902431;29;20023;-91
2022/01/18 09:29:39;;;;;;;18.00;3.10;;;;;;;;;;4905077;29;20029;-93
2022/01/18 09:32:05;;;;;;;15.00;3.00;;;;;;;;;;4913083;29;20024;-94
2022/01/18 09:34:33;;;;;;;12.57;3.13;;;;;;;;;;4927151;29;20020;-92
2022/01/18 09:36:58;;;;;;;15.50;3.63;;;;;;;;;;4925882;29;20558;-94
2022/01/18 09:39:25;;;;;;;13.55;3.00;;;;;;;;;;4926130;29;20025;-91
2022/01/18 09:41:52;;;;;;;12.07;2.72;;;;;;;;;;4904207;29;20025;-92
2022/01/18 09:44:18;;;;;;;16.23;3.55;;;;;;;;;;4909128;29;20052;-92
2022/01/18 09:46:43;;;;;;;12.55;3.30;;;;;;;;;;4907037;29;20490;-91
2022/01/18 09:49:09;;;;;;;9.30;2.50;;;;;;;;;;4903504;29;20097;-92
2022/01/18 09:51:34;;;;;;;20.02;3.78;;;;;;;;;;4904105;29;20367;-91
2022/01/18 09:54:02;;;;;;;15.82;2.78;;;;;;;;;;4915499;29;20021;-93
2022/01/18 09:56:40;;;;;;;16.90;3.45;;;;;;;;;;4932253;29;20033;-93
2022/01/18 09:59:09;;;;;;;19.77;3.50;;;;;;;;;;4919779;29;20032;-93
2022/01/18 10:04:17;;;;;;;13.60;2.63;;;;;;;;;;4939275;29;20048;-94
2022/01/18 10:06:51;;;;;;;14.93;4.00;;;;;;;;;;4921260;29;20044;-93
2022/01/18 10:09:21;;;;;;;13.15;2.67;;;;;;;;;;4920414;29;20019;-94
2022/01/18 10:11:59;;;;;;;21.10;4.40;;;;;;;;;;4902530;29;20023;-93
2022/01/18 10:14:25;;;;;;;12.98;2.85;;;;;;;;;;4904810;29;20119;-95
2022/01/18 10:17:00;;;;;;;13.38;2.92;;;;;;;;;;4903655;29;20059;-94
2022/01/18 10:19:38;;;;;;;14.30;2.97;;;;;;;;;;4920466;29;20016;-93
2022/01/18 10:22:08;;;;;;;14.07;3.72;;;;;;;;;;4903507;29;20025;-94
2022/01/18 10:24:34;;;;;;;10.13;3.10;;;;;;;;;;4902505;29;20036;-93
2022/01/18 10:27:00;;;;;;;16.52;3.38;;;;;;;;;;4901673;29;20013;-93
2022/01/18 10:29:27;;;;;;;18.02;3.42;;;;;;;;;;4902701;29;20474;-93
2022/01/18 10:32:12;;;;;;;10.20;3.28;;;;;;;;;;4904704;29;20048;-92
2022/01/18 10:35:04;;;;;;;11.65;3.63;;;;;;;;;;4906888;29;20009;-91
2022/01/18 10:37:53;;;;;;;13.07;4.07;;;;;;;;;;4920685;29;20029;-94
2022/01/18 10:40:20;;;;;;;24.63;4.25;;;;;;;;;;4899298;29;20080;-93
2022/01/18 10:42:53;;;;;;;17.63;3.90;;;;;;;;;;4905406;29;20084;-94
2022/01/18 10:45:37;;;;;;;8.85;2.85;;;;;;;;;;4905358;29;20019;-95
2022/01/18 10:48:11;;;;;;;20.48;3.95;;;;;;;;;;4900334;29;20024;-93
2022/01/18 10:50:40;;;;;;;11.43;3.38;;;;;;;;;;4903956;29;20053;-94
2022/01/18 10:53:18;;;;;;;12.13;2.60;;;;;;;;;;4904140;29;20028;-94
2022/01/18 10:56:09;;;;;;;12.15;3.35;;;;;;;;;;4965687;23;20047;-92
2022/01/18 11:04:11;;;;;;;12.98;3.42;;;;;;;;;;5786487;23;20087;-92
2022/01/18 11:06:37;;;;;;;9.93;3.05;;;;;;;;;;4923956;29;20032;-93
2022/01/18 11:09:16;;;;;;;10.05;3.25;;;;;;;;;;4937514;29;20132;-92
2022/01/18 11:11:51;;;;;;;12.27;3.13;;;;;;;;;;4937065;29;20028;-91
2022/01/18 11:14:19;;;;;;;10.57;3.47;;;;;;;;;;4921746;29;20095;-90
2022/01/18 11:16:46;;;;;;;16.88;4.47;;;;;;;;;;4940114;29;20024;-92
2022/01/18 11:21:50;;;;;;;;;;;;;;;;;;5460959;23;20044;-90
2022/01/18 11:24:22;;;;;;;13.77;3.55;;;;;;;;;;4922271;29;19915;-89
2022/01/18 11:26:50;;;;;;;19.95;3.70;;;;;;;;;;4918703;29;20028;-92
2022/01/18 11:29:17;;;;;;;16.95;4.40;;;;;;;;;;4892721;29;20060;-93
2022/01/18 11:31:46;;;;;;;14.82;4.85;;;;;;;;;;4892545;29;20031;-90
2022/01/18 11:34:13;;;;;;;17.20;4.70;;;;;;;;;;4909291;29;20009;-91
2022/01/18 11:36:47;;;;;;;8.98;3.70;;;;;;;;;;4892705;29;20020;-92
2022/01/18 11:39:15;;;;;;;11.57;3.65;;;;;;;;;;4893239;29;20033;-93
2022/01/18 11:41:40;;;;;;;11.82;3.53;;;;;;;;;;4893881;29;20024;-93
2022/01/18 11:44:16;;;;;;;13.75;3.45;;;;;;;;;;4893128;29;20126;-92
2022/01/18 11:46:47;;;;;;;11.63;4.13;;;;;;;;;;4893843;29;20124;-92
2022/01/18 11:49:21;;;;;;;8.63;2.90;;;;;;;;;;4894752;29;20035;-94
2022/01/18 11:51:53;;;;;;;11.23;3.00;;;;;;;;;;4896322;29;20088;-94
2022/01/18 11:54:36;;;;;;;8.98;2.78;;;;;;;;;;4894618;29;20028;-93
2022/01/18 11:57:27;;;;;;;8.73;2.75;;;;;;;;;;4911227;23;20026;-78
2022/01/18 11:59:52;;;;;;;8.60;2.45;;;;;;;;;;4902304;29;20042;-76
2022/01/18 12:02:38;;;;;;;6.30;2.65;;;;;;;;;;4916625;29;20019;-78
2022/01/18 12:05:12;;;;;;;13.63;2.95;;;;;;;;;;4899427;29;20251;-79
2022/01/18 12:07:38;;;;;;;7.28;3.40;;;;;;;;;;4897001;29;20027;-78
2022/01/18 12:10:05;;;;;;;9.50;3.42;;;;;;;;;;4881563;29;20032;-79
2022/01/18 12:12:40;;;;;;;7.20;2.72;;;;;;;;;;4882123;29;20083;-78
2022/01/18 12:15:29;;;;;;;8.82;2.42;;;;;;;;;;4900562;29;20020;-77
2022/01/18 12:17:58;;;;;;;8.70;2.78;;;;;;;;;;4892210;29;20029;-77
2022/01/18 12:20:32;;;;;;;8.30;2.58;;;;;;;;;;4900203;29;20020;-78
2022/01/18 12:23:04;;;;;;;6.60;2.75;;;;;;;;;;4900291;29;20029;-78
2022/01/18 12:25:31;;;;;;;9.82;3.22;;;;;;;;;;4900077;29;20086;-78
2022/01/18 12:28:01;;;;;;;7.72;2.30;;;;;;;;;;4900417;29;20031;-77
2022/01/18 12:30:53;;;;;;;6.63;2.65;;;;;;;;;;4884136;29;20068;-78
2022/01/18 12:33:19;;;;;;;7.15;2.50;;;;;;;;;;4900441;29;20017;-76
2022/01/18 12:35:44;;;;;;;6.18;2.38;;;;;;;;;;4900192;29;20045;-77
2022/01/18 12:38:20;;;;;;;6.80;2.65;;;;;;;;;;4900724;29;20029;-76
2022/01/18 12:40:45;;;;;;;11.13;2.42;;;;;;;;;;4901152;29;20103;-77
2022/01/18 12:45:38;;;;;;;5.55;2.50;;;;;;;;;;4900762;29;20112;-77
2022/01/18 12:48:09;;;;;;;8.98;2.28;;;;;;;;;;4901191;29;20031;-76
2022/01/18 12:50:36;;;;;;;9.68;2.25;;;;;;;;;;4903002;29;20028;-78
2022/01/18 12:53:01;;;;;;;6.95;2.03;;;;;;;;;;4901753;29;20025;-78
2022/01/18 12:55:44;;;;;;;7.95;2.15;;;;;;;;;;4885991;29;20476;-76
2022/01/18 12:58:24;;;;;;;8.23;2.25;;;;;;;;;;4887145;29;20036;-78
2022/01/18 13:00:53;;;;;;;10.07;3.70;;;;;;;;;;4904040;29;20021;-76
2022/01/18 13:03:23;;;;;;;7.78;3.15;;;;;;;;;;4904638;29;20474;-76
2022/01/18 13:05:50;;;;;;;7.60;2.28;;;;;;;;;;4887078;29;20025;-78
2022/01/18 13:08:16;;;;;;;4.97;1.67;;;;;;;;;;4904556;29;20025;-77
2022/01/18 13:10:43;;;;;;;7.47;1.95;;;;;;;;;;4903863;29;20031;-77
2022/01/18 13:13:10;;;;;;;13.27;2.17;;;;;;;;;;4903808;29;20096;-78
2022/01/18 13:15:46;;;;;;;3.58;1.60;;;;;;;;;;4887167;29;20031;-78
2022/01/18 13:30:07;;;;;;;5.15;1.58;;;;;;;;;;4823839;29;20042;-78
2022/01/18 13:32:35;;;;;;;7.05;1.67;;;;;;;;;;4810385;29;20078;-78
2022/01/18 13:35:03;;;;;;;11.38;1.90;;;;;;;;;;4835126;29;20083;-78
2022/01/18 13:37:30;;;;;;;9.38;2.38;;;;;;;;;;4843876;29;20050;-78
2022/01/18 13:39:57;;;;;;;5.85;1.65;;;;;;;;;;4829118;29;20030;-77
2022/01/18 13:42:27;;;;;;;7.47;1.80;;;;;;;;;;4828948;29;20120;-78
2022/01/18 13:45:06;;;;;;;3.78;1.58;;;;;;;;;;4844147;29;20064;-78
2022/01/18 13:47:38;;;;;;;5.47;1.17;;;;;;;;;;4843383;29;20030;-77
2022/01/18 13:50:04;;;;;;;5.15;1.65;;;;;;;;;;4843832;29;20034;-79
2022/01/18 13:52:31;;;;;;;5.85;1.77;;;;;;;;;;4844228;29;20060;-81
2022/01/18 13:54:56;;;;;;;8.18;1.65;;;;;;;;;;4844131;29;20126;-78
2022/01/18 13:57:22;;;;;;;8.43;1.88;;;;;;;;;;4843304;29;20062;-78
2022/01/18 13:59:48;;;;;;;4.78;2.28;;;;;;;;;;4831655;29;20030;-78
2022/01/18 14:02:16;;;;;;;7.00;2.20;;;;;;;;;;4900770;29;20060;-78
2022/01/18 14:04:41;;;;;;;7.88;1.80;;;;;;;;;;4900366;29;20028;-78
2022/01/18 14:07:07;;;;;;;8.32;2.13;;;;;;;;;;4900694;29;20478;-78
2022/01/18 14:09:33;;;;;;;5.80;2.10;;;;;;;;;;4901376;29;20103;-76
2022/01/18 14:11:58;;;;;;;11.25;2.20;;;;;;;;;;4900708;29;20055;-79
2022/01/18 14:14:29;;;;;;;6.45;2.60;;;;;;;;;;4901174;29;20533;-78
2022/01/18 14:16:59;;;;;;;9.02;2.35;;;;;;;;;;4884464;29;20021;-78
2022/01/18 14:19:28;;;;;;;10.60;3.05;;;;;;;;;;4883805;29;20063;-77
2022/01/18 14:21:54;;;;;;;8.43;2.30;;;;;;;;;;4901146;29;20032;-79
2022/01/18 14:24:24;;;;;;;6.38;2.22;;;;;;;;;;4901726;29;20033;-79
2022/01/18 14:26:52;;;;;;;8.25;2.38;;;;;;;;;;4901449;29;20021;-78
2022/01/18 14:29:18;;;;;;;7.65;2.38;;;;;;;;;;4883916;29;20080;-78
2022/01/18 14:31:55;;;;;;;7.68;2.22;;;;;;;;;;4900706;29;20024;-77
2022/01/18 14:34:27;;;;;;;14.32;2.58;;;;;;;;;;4883076;29;20385;-78
2022/01/18 14:36:55;;;;;;;7.43;2.20;;;;;;;;;;4899796;29;20020;-77
2022/01/18 14:39:20;;;;;;;7.45;2.40;;;;;;;;;;4900793;29;20104;-77
2022/01/18 14:41:49;;;;;;;10.10;2.45;;;;;;;;;;4883944;29;20084;-77
2022/01/18 14:44:24;;;;;;;5.93;2.35;;;;;;;;;;4899523;29;20084;-75
2022/01/18 14:46:58;;;;;;;8.13;2.55;;;;;;;;;;4900092;29;20025;-77
2022/01/18 14:49:32;;;;;;;7.35;2.67;;;;;;;;;;4886799;29;20031;-77
2022/01/18 14:51:57;;;;;;;14.00;3.15;;;;;;;;;;4882816;29;20454;-77
2022/01/18 14:54:27;;;;;;;12.77;3.15;;;;;;;;;;4899726;29;20375;-75
2022/01/18 14:56:52;;;;;;;9.20;2.70;;;;;;;;;;4899823;29;20070;-78
2022/01/18 14:59:23;;;;;;;8.80;3.55;;;;;;;;;;4903495;29;20025;-77
2022/01/18 15:01:49;;;;;;;7.93;2.00;;;;;;;;;;4903420;29;20021;-77
2022/01/18 15:04:14;;;;;;;13.23;2.30;;;;;;;;;;4901012;29;20036;-77
2022/01/18 15:06:39;;;;;;;8.18;2.08;;;;;;;;;;4900536;29;20554;-77
2022/01/18 15:09:04;;;;;;;11.15;2.85;;;;;;;;;;4882890;29;20032;-78
2022/01/18 15:11:30;;;;;;;9.15;3.38;;;;;;;;;;4899698;29;20028;-78
2022/01/18 15:13:55;;;;;;;5.90;2.55;;;;;;;;;;4899499;29;20028;-76
2022/01/18 15:16:21;;;;;;;10.27;2.70;;;;;;;;;;4899605;29;20025;-77
2022/01/18 15:18:46;;;;;;;9.90;2.50;;;;;;;;;;4900086;29;20028;-78
2022/01/18 15:21:12;;;;;;;9.88;3.00;;;;;;;;;;4903614;29;20028;-78
2022/01/18 15:23:37;;;;;;;11.40;3.20;;;;;;;;;;4903150;29;20027;-79
2022/01/18 15:26:02;;;;;;;8.15;3.00;;;;;;;;;;4903412;29;20032;-78
2022/01/18 15:28:27;;;;;;;8.50;3.53;;;;;;;;;;4903768;29;20111;-79
2022/01/18 15:30:52;;;;;;;8.57;3.80;;;;;;;;;;4902386;29;20029;-78
2022/01/18 15:33:18;;;;;;;9.77;4.20;;;;;;;;;;4901677;29;20029;-79
2022/01/18 15:35:43;;;;;;;15.05;3.80;;;;;;;;;;4903916;29;20521;-79
2022/01/18 15:38:09;;;;;;;10.88;4.10;;;;;;;;;;4903670;29;20017;-77
2022/01/18 15:40:35;;;;;;;9.52;4.03;;;;;;;;;;4887090;29;20047;-79
2022/01/18 15:43:00;;;;;;;13.85;4.80;;;;;;;;;;4905069;29;20024;-79
2022/01/18 15:45:25;;;;;;;10.52;4.30;;;;;;;;;;4887713;29;20101;-78
2022/01/18 15:47:50;;;;;;;11.05;3.80;;;;;;;;;;4904762;29;20080;-78
2022/01/18 15:50:15;;;;;;;11.02;3.97;;;;;;;;;;4902878;29;20230;-78
2022/01/18 15:52:41;;;;;;;9.50;4.28;;;;;;;;;;4902153;29;20497;-77
2022/01/18 15:55:07;;;;;;;13.60;4.88;;;;;;;;;;4896239;29;20482;-78
2022/01/18 15:57:32;;;;;;;11.25;4.05;;;;;;;;;;4885782;29;20490;-78
2022/01/18 15:59:58;;;;;;;10.43;4.15;;;;;;;;;;4902186;29;20041;-78
2022/01/18 16:02:23;;;;;;;10.65;3.72;;;;;;;;;;4902552;29;20031;-78
2022/01/18 16:04:48;;;;;;;17.75;4.95;;;;;;;;;;4882979;29;20127;-78
2022/01/18 16:07:14;;;;;;;13.35;3.88;;;;;;;;;;4881084;29;20036;-78
2022/01/18 16:09:39;;;;;;;11.30;4.43;;;;;;;;;;4897786;29;20032;-77
2022/01/18 16:12:05;;;;;;;16.15;4.85;;;;;;;;;;4898379;29;20024;-78
2022/01/18 16:14:30;;;;;;;15.00;4.28;;;;;;;;;;4897228;29;20107;-78
2022/01/18 16:16:55;;;;;;;8.88;4.53;;;;;;;;;;4882088;29;21140;-77